Climatologie pour Saint-Brevin les Pins
Jour • Résumé pour février 9, 2018 Système :  Mixte    Anglais   Métrique
« - 1 jour
+ 1 jour »
Jour Semaine Mois Année Personnalisé
  Maximum : Minimum : Moyenne :
Température sous abri : 51.3 °F /  10.7 °C 36.9 °F /  2.7 °C 43.5 °F /  6.4 °C
Point de rosée : 45.7 °F /  7.6 °C 30.9 °F /  -0.6 °C 37.9 °F /  3.3 °C
Humidité : 96% 55% 82%
Vitesse du vent : 16mph /  25.7km/h - 5.5mph /  8.8km/h
Rafale : 24mph /  38.6km/h - -
Direction - - West
Pression : 30.2 in /  1023.2 hPa 29.9 in /  1012.1 hPa -
Précipitations : 0.17 in /  4.3 mm    
Historical Graphs
 
 
Tableau de données pour février 9, 2018
Heure Tempé Pt rosée Pression Vent Vitesse Rafale Humidité Taux pluie (/hr) Soleil
00:00 37.6 °F /  3.1 °C 35.6 °F /  2.0 °C 30.1in /  1018.2hPa South 4mph /  6.4km/h 7mph /  11.3km/h 93% 0in /  0.0mm 0 W/m2
00:05 38.1 °F /  3.4 °C 36.3 °F /  2.4 °C 30.1in /  1018.2hPa SSW 7mph /  11.3km/h 7mph /  11.3km/h 93% 0in /  0.0mm 0 W/m2
00:10 38.8 °F /  3.8 °C 36.7 °F /  2.6 °C 30.1in /  1018.2hPa SW 4mph /  6.4km/h 7mph /  11.3km/h 92% 0in /  0.0mm 0 W/m2
00:15 39 °F /  3.9 °C 37 °F /  2.8 °C 30.1in /  1018.2hPa SSW 2mph /  3.2km/h 7mph /  11.3km/h 92% 0in /  0.0mm 0 W/m2
00:20 39.4 °F /  4.1 °C 37 °F /  2.8 °C 30.1in /  1018.2hPa SSW 1mph /  1.6km/h 6mph /  9.7km/h 91% 0in /  0.0mm 0 W/m2
00:25 39.6 °F /  4.2 °C 37 °F /  2.8 °C 30.1in /  1018.2hPa South 2mph /  3.2km/h 9mph /  14.5km/h 91% 0in /  0.0mm 0 W/m2
00:30 39.7 °F /  4.3 °C 37 °F /  2.8 °C 30.1in /  1018.2hPa South 3mph /  4.8km/h 9mph /  14.5km/h 90% 0in /  0.0mm 0 W/m2
00:35 39.7 °F /  4.3 °C 37 °F /  2.8 °C 30.1in /  1017.8hPa SSW 6mph /  9.7km/h 9mph /  14.5km/h 90% 0in /  0.0mm 0 W/m2
00:45 40.6 °F /  4.8 °C 37.8 °F /  3.2 °C 30.1in /  1018.2hPa SSW 4mph /  6.4km/h 9mph /  14.5km/h 89% 0in /  0.0mm 0 W/m2
00:50 41 °F /  5.0 °C 37.8 °F /  3.2 °C 30.1in /  1017.8hPa South 4mph /  6.4km/h 14mph /  22.5km/h 88% 0in /  0.0mm 0 W/m2
00:55 41.2 °F /  5.1 °C 37.6 °F /  3.1 °C 30.1in /  1017.8hPa SSW 2mph /  3.2km/h 14mph /  22.5km/h 87% 0in /  0.0mm 0 W/m2
01:00 41.5 °F /  5.3 °C 37.9 °F /  3.3 °C 30.1in /  1017.8hPa South 3mph /  4.8km/h 10mph /  16.1km/h 87% 0in /  0.0mm 0 W/m2
01:05 41.9 °F /  5.5 °C 38.3 °F /  3.5 °C 30.1in /  1017.8hPa SSW 8mph /  12.9km/h 11mph /  17.7km/h 87% 0in /  0.0mm 0 W/m2
01:10 42.1 °F /  5.6 °C 38.3 °F /  3.5 °C 30.1in /  1017.5hPa SSW 4mph /  6.4km/h 11mph /  17.7km/h 86% 0in /  0.0mm 0 W/m2
01:15 42.3 °F /  5.7 °C 38.3 °F /  3.5 °C 30.1in /  1017.5hPa SSW 4mph /  6.4km/h 15mph /  24.1km/h 86% 0in /  0.0mm 0 W/m2
01:20 42.4 °F /  5.8 °C 38.5 °F /  3.6 °C 30.1in /  1017.5hPa SW 7mph /  11.3km/h 15mph /  24.1km/h 86% 0in /  0.0mm 0 W/m2
01:30 42.4 °F /  5.8 °C 38.3 °F /  3.5 °C 30.1in /  1017.5hPa SSW 5mph /  8.0km/h 13mph /  20.9km/h 85% 0in /  0.0mm 0 W/m2
01:35 42.6 °F /  5.9 °C 38.5 °F /  3.6 °C 30in /  1017.2hPa South 9mph /  14.5km/h 13mph /  20.9km/h 85% 0in /  0.0mm 0 W/m2
01:40 42.6 °F /  5.9 °C 38.5 °F /  3.6 °C 30in /  1017.2hPa SSW 5mph /  8.0km/h 12mph /  19.3km/h 85% 0in /  0.0mm 0 W/m2
01:45 42.6 °F /  5.9 °C 38.5 °F /  3.6 °C 30in /  1017.2hPa South 7mph /  11.3km/h 13mph /  20.9km/h 85% 0in /  0.0mm 0 W/m2
01:50 42.6 °F /  5.9 °C 38.5 °F /  3.6 °C 30in /  1017.2hPa SSW 10mph /  16.1km/h 14mph /  22.5km/h 85% 0in /  0.0mm 0 W/m2
01:55 42.8 °F /  6.0 °C 38.8 °F /  3.8 °C 30in /  1017.2hPa SSW 7mph /  11.3km/h 14mph /  22.5km/h 86% 0in /  0.0mm 0 W/m2
02:00 42.8 °F /  6.0 °C 38.7 °F /  3.7 °C 30in /  1017.2hPa South 16mph /  25.7km/h 16mph /  25.7km/h 85% 0in /  0.0mm 0 W/m2
02:05 43 °F /  6.1 °C 38.7 °F /  3.7 °C 30in /  1016.8hPa SW 6mph /  9.7km/h 17mph /  27.4km/h 85% 0in /  0.0mm 0 W/m2
02:15 43 °F /  6.1 °C 39 °F /  3.9 °C 30in /  1016.8hPa South 7mph /  11.3km/h 12mph /  19.3km/h 86% 0in /  0.0mm 0 W/m2
02:20 43.2 °F /  6.2 °C 39.2 °F /  4.0 °C 30in /  1016.8hPa South 10mph /  16.1km/h 12mph /  19.3km/h 86% 0in /  0.0mm 0 W/m2
02:25 43.2 °F /  6.2 °C 39.2 °F /  4.0 °C 30in /  1016.8hPa South 8mph /  12.9km/h 13mph /  20.9km/h 86% 0in /  0.0mm 0 W/m2
02:30 43.2 °F /  6.2 °C 39.4 °F /  4.1 °C 30in /  1016.5hPa SSW 3mph /  4.8km/h 13mph /  20.9km/h 86% 0in /  0.0mm 0 W/m2
02:35 43.3 °F /  6.3 °C 39.4 °F /  4.1 °C 30in /  1016.5hPa SSW 6mph /  9.7km/h 12mph /  19.3km/h 86% 0in /  0.0mm 0 W/m2
02:40 43.3 °F /  6.3 °C 39.6 °F /  4.2 °C 30in /  1016.5hPa South 8mph /  12.9km/h 14mph /  22.5km/h 86% 0in /  0.0mm 0 W/m2
02:45 43.5 °F /  6.4 °C 39.7 °F /  4.3 °C 30in /  1016.5hPa South 8mph /  12.9km/h 14mph /  22.5km/h 86% 0in /  0.0mm 0 W/m2
02:50 43.5 °F /  6.4 °C 39.7 °F /  4.3 °C 30in /  1016.1hPa SSW 13mph /  20.9km/h 14mph /  22.5km/h 86% 0in /  0.0mm 0 W/m2
03:00 43.5 °F /  6.4 °C 39.7 °F /  4.3 °C 30in /  1016.1hPa SSW 9mph /  14.5km/h 15mph /  24.1km/h 86% 0in /  0.0mm 0 W/m2
03:05 43.5 °F /  6.4 °C 39.7 °F /  4.3 °C 30in /  1015.8hPa SSW 6mph /  9.7km/h 11mph /  17.7km/h 86% 0in /  0.0mm 0 W/m2
03:10 43.5 °F /  6.4 °C 39.9 °F /  4.4 °C 30in /  1015.8hPa SSW 6mph /  9.7km/h 11mph /  17.7km/h 87% 0in /  0.0mm 0 W/m2
03:15 43.3 °F /  6.3 °C 39.7 °F /  4.3 °C 30in /  1015.8hPa SSW 7mph /  11.3km/h 11mph /  17.7km/h 87% 0in /  0.0mm 0 W/m2
03:20 43.5 °F /  6.4 °C 39.9 °F /  4.4 °C 30in /  1015.8hPa SSW 5mph /  8.0km/h 9mph /  14.5km/h 87% 0in /  0.0mm 0 W/m2
03:25 43.9 °F /  6.6 °C 40.1 °F /  4.5 °C 30in /  1015.5hPa South 5mph /  8.0km/h 8mph /  12.9km/h 87% 0in /  0.0mm 0 W/m2
03:30 44.1 °F /  6.7 °C 39.9 °F /  4.4 °C 30in /  1015.5hPa SSW 6mph /  9.7km/h 10mph /  16.1km/h 85% 0in /  0.0mm 0 W/m2
03:35 44.4 °F /  6.9 °C 39.9 °F /  4.4 °C 30in /  1015.5hPa South 4mph /  6.4km/h 15mph /  24.1km/h 84% 0in /  0.0mm 0 W/m2
03:45 44.8 °F /  7.1 °C 39.9 °F /  4.4 °C 30in /  1015.1hPa SSW 4mph /  6.4km/h 13mph /  20.9km/h 83% 0in /  0.0mm 0 W/m2
03:50 44.6 °F /  7.0 °C 40.1 °F /  4.5 °C 30in /  1015.1hPa SSW 4mph /  6.4km/h 13mph /  20.9km/h 84% 0in /  0.0mm 0 W/m2
03:55 44.4 °F /  6.9 °C 40.3 °F /  4.6 °C 30in /  1014.8hPa SSW 4mph /  6.4km/h 12mph /  19.3km/h 85% 0in /  0.0mm 0 W/m2
04:00 44.6 °F /  7.0 °C 40.3 °F /  4.6 °C 30in /  1014.8hPa WSW 4mph /  6.4km/h 12mph /  19.3km/h 85% 0in /  0.0mm 0 W/m2
04:05 44.8 °F /  7.1 °C 40.5 °F /  4.7 °C 30in /  1014.8hPa SSW 7mph /  11.3km/h 11mph /  17.7km/h 85% 0in /  0.0mm 0 W/m2
04:10 45 °F /  7.2 °C 40.5 °F /  4.7 °C 30in /  1014.8hPa SSW 2mph /  3.2km/h 13mph /  20.9km/h 84% 0in /  0.0mm 0 W/m2
04:15 45.1 °F /  7.3 °C 40.6 °F /  4.8 °C 30in /  1014.8hPa SW 12mph /  19.3km/h 15mph /  24.1km/h 84% 0in /  0.0mm 0 W/m2
04:20 45.1 °F /  7.3 °C 40.6 °F /  4.8 °C 30in /  1014.4hPa SW 5mph /  8.0km/h 17mph /  27.4km/h 84% 0in /  0.0mm 0 W/m2
04:30 45 °F /  7.2 °C 40.8 °F /  4.9 °C 29.9in /  1014.1hPa SSW 5mph /  8.0km/h 11mph /  17.7km/h 85% 0in /  0.0mm 0 W/m2
04:35 45 °F /  7.2 °C 40.6 °F /  4.8 °C 29.9in /  1014.1hPa SSW 1mph /  1.6km/h 12mph /  19.3km/h 85% 0in /  0.0mm 0 W/m2
04:40 44.8 °F /  7.1 °C 40.8 °F /  4.9 °C 29.9in /  1014.1hPa SW 5mph /  8.0km/h 13mph /  20.9km/h 86% 0in /  0.0mm 0 W/m2
04:45 44.6 °F /  7.0 °C 41 °F /  5.0 °C 29.9in /  1014.1hPa South 5mph /  8.0km/h 13mph /  20.9km/h 87% 0in /  0.0mm 0 W/m2
04:50 44.4 °F /  6.9 °C 41.2 °F /  5.1 °C 29.9in /  1013.8hPa South 6mph /  9.7km/h 11mph /  17.7km/h 88% 0in /  0.0mm 0 W/m2
04:55 44.4 °F /  6.9 °C 41.2 °F /  5.1 °C 29.9in /  1013.8hPa SSW 3mph /  4.8km/h 16mph /  25.7km/h 88% 0.01in /  0.3mm 0 W/m2
05:00 44.4 °F /  6.9 °C 41.4 °F /  5.2 °C 29.9in /  1013.8hPa South 2mph /  3.2km/h 16mph /  25.7km/h 89% 0.01in /  0.3mm 0 W/m2
05:05 44.4 °F /  6.9 °C 41.4 °F /  5.2 °C 29.9in /  1013.8hPa SSW 7mph /  11.3km/h 14mph /  22.5km/h 89% 0.01in /  0.3mm 0 W/m2
05:15 44.4 °F /  6.9 °C 41.7 °F /  5.4 °C 29.9in /  1013.4hPa SW 1mph /  1.6km/h 14mph /  22.5km/h 90% 0.01in /  0.3mm 0 W/m2
05:20 44.4 °F /  6.9 °C 41.7 °F /  5.4 °C 29.9in /  1013.4hPa South 8mph /  12.9km/h 13mph /  20.9km/h 90% 0.01in /  0.3mm 0 W/m2
05:25 44.4 °F /  6.9 °C 41.7 °F /  5.4 °C 29.9in /  1013.4hPa SSW 5mph /  8.0km/h 13mph /  20.9km/h 90% 0.01in /  0.3mm 0 W/m2
05:30 44.4 °F /  6.9 °C 42.1 °F /  5.6 °C 29.9in /  1013.4hPa SSE 6mph /  9.7km/h 14mph /  22.5km/h 91% 0.01in /  0.3mm 0 W/m2
05:35 44.6 °F /  7.0 °C 42.1 °F /  5.6 °C 29.9in /  1013.4hPa South 5mph /  8.0km/h 14mph /  22.5km/h 91% 0.01in /  0.3mm 0 W/m2
05:40 44.8 °F /  7.1 °C 42.3 °F /  5.7 °C 29.9in /  1013.4hPa SSW 4mph /  6.4km/h 16mph /  25.7km/h 91% 0.02in /  0.5mm 0 W/m2
05:45 44.8 °F /  7.1 °C 42.3 °F /  5.7 °C 29.9in /  1013.1hPa SW 7mph /  11.3km/h 16mph /  25.7km/h 91% 0.02in /  0.5mm 0 W/m2
05:50 44.8 °F /  7.1 °C 42.3 °F /  5.7 °C 29.9in /  1013.1hPa SSW 7mph /  11.3km/h 16mph /  25.7km/h 91% 0.02in /  0.5mm 0 W/m2
06:00 44.8 °F /  7.1 °C 42.6 °F /  5.9 °C 29.9in /  1013.1hPa South 6mph /  9.7km/h 16mph /  25.7km/h 92% 0.02in /  0.5mm 0 W/m2
06:05 44.8 °F /  7.1 °C 42.6 °F /  5.9 °C 29.9in /  1013.1hPa SSW 3mph /  4.8km/h 16mph /  25.7km/h 92% 0.02in /  0.5mm 0 W/m2
06:10 45 °F /  7.2 °C 43 °F /  6.1 °C 29.9in /  1013.1hPa SW 6mph /  9.7km/h 17mph /  27.4km/h 93% 0.02in /  0.5mm 0 W/m2
06:15 45 °F /  7.2 °C 43 °F /  6.1 °C 29.9in /  1012.8hPa SSW 7mph /  11.3km/h 17mph /  27.4km/h 93% 0.02in /  0.5mm 0 W/m2
06:20 45 °F /  7.2 °C 43.2 °F /  6.2 °C 29.9in /  1012.8hPa SW 7mph /  11.3km/h 15mph /  24.1km/h 93% 0.02in /  0.5mm 0 W/m2
06:25 45 °F /  7.2 °C 43.2 °F /  6.2 °C 29.9in /  1012.8hPa SSW 7mph /  11.3km/h 20mph /  32.2km/h 93% 0.03in /  0.8mm 0 W/m2
06:30 45.1 °F /  7.3 °C 43.5 °F /  6.4 °C 29.9in /  1012.8hPa SSW 11mph /  17.7km/h 20mph /  32.2km/h 94% 0.03in /  0.8mm 0 W/m2
06:35 45.1 °F /  7.3 °C 43.5 °F /  6.4 °C 29.9in /  1012.8hPa SSW 4mph /  6.4km/h 20mph /  32.2km/h 94% 0.03in /  0.8mm 0 W/m2
06:45 45.5 °F /  7.5 °C 43.9 °F /  6.6 °C 29.9in /  1012.4hPa SSW 4mph /  6.4km/h 18mph /  29.0km/h 94% 0.02in /  0.5mm 0 W/m2
06:50 45.7 °F /  7.6 °C 44.2 °F /  6.8 °C 29.9in /  1012.8hPa South 4mph /  6.4km/h 16mph /  25.7km/h 95% 0.02in /  0.5mm 0 W/m2
06:55 45.9 °F /  7.7 °C 44.4 °F /  6.9 °C 29.9in /  1012.8hPa SSE 10mph /  16.1km/h 18mph /  29.0km/h 95% 0.04in /  1.0mm 0 W/m2
07:00 45.9 °F /  7.7 °C 44.4 °F /  6.9 °C 29.9in /  1012.8hPa SSW 3mph /  4.8km/h 18mph /  29.0km/h 95% 0.05in /  1.3mm 0 W/m2
07:05 46 °F /  7.8 °C 44.6 °F /  7.0 °C 29.9in /  1012.4hPa South 7mph /  11.3km/h 13mph /  20.9km/h 95% 0.06in /  1.5mm 0 W/m2
07:10 46 °F /  7.8 °C 44.8 °F /  7.1 °C 29.9in /  1012.8hPa SSW 7mph /  11.3km/h 21mph /  33.8km/h 95% 0.06in /  1.5mm 0 W/m2
07:15 46.2 °F /  7.9 °C 45 °F /  7.2 °C 29.9in /  1012.8hPa SW 4mph /  6.4km/h 21mph /  33.8km/h 95% 0.07in /  1.8mm 0 W/m2
07:20 46.2 °F /  7.9 °C 45 °F /  7.2 °C 29.9in /  1012.8hPa WSW 9mph /  14.5km/h 16mph /  25.7km/h 95% 0.08in /  2.0mm 0 W/m2
07:30 46.6 °F /  8.1 °C 45.1 °F /  7.3 °C 29.9in /  1012.8hPa West 7mph /  11.3km/h 12mph /  19.3km/h 95% 0.08in /  2.0mm 0 W/m2
07:35 46.8 °F /  8.2 °C 45.7 °F /  7.6 °C 29.9in /  1012.8hPa West 8mph /  12.9km/h 15mph /  24.1km/h 96% 0.09in /  2.3mm 0 W/m2
07:40 46.8 °F /  8.2 °C 45.7 °F /  7.6 °C 29.9in /  1012.4hPa WNW 10mph /  16.1km/h 15mph /  24.1km/h 96% 0.09in /  2.3mm 0 W/m2
07:45 46.4 °F /  8.0 °C 45 °F /  7.2 °C 29.9in /  1012.1hPa WSW 4mph /  6.4km/h 13mph /  20.9km/h 95% 0.09in /  2.3mm 0 W/m2
07:50 46.2 °F /  7.9 °C 45 °F /  7.2 °C 29.9in /  1012.1hPa Calm   10mph /  16.1km/h 95% 0.09in /  2.3mm 0 W/m2
07:55 46 °F /  7.8 °C 44.8 °F /  7.1 °C 29.9in /  1012.1hPa WSW 1mph /  1.6km/h 7mph /  11.3km/h 95% 0.07in /  1.8mm 0 W/m2
08:00 45.9 °F /  7.7 °C 44.8 °F /  7.1 °C 29.9in /  1012.4hPa West 1mph /  1.6km/h 5mph /  8.0km/h 96% 0.06in /  1.5mm 0 W/m2
08:05 45.9 °F /  7.7 °C 44.4 °F /  6.9 °C 29.9in /  1012.4hPa WNW 1mph /  1.6km/h 5mph /  8.0km/h 95% 0.05in /  1.3mm 0 W/m2
08:15 45.5 °F /  7.5 °C 44.2 °F /  6.8 °C 29.9in /  1012.4hPa West 4mph /  6.4km/h 7mph /  11.3km/h 95% 0.03in /  0.8mm 0 W/m2
08:20 45.3 °F /  7.4 °C 43.9 °F /  6.6 °C 29.9in /  1012.4hPa West 2mph /  3.2km/h 7mph /  11.3km/h 95% 0.02in /  0.5mm 0 W/m2
08:25 45.1 °F /  7.3 °C 43.7 °F /  6.5 °C 29.9in /  1012.8hPa WNW 2mph /  3.2km/h 6mph /  9.7km/h 95% 0.02in /  0.5mm 0 W/m2
08:30 45.1 °F /  7.3 °C 44.1 °F /  6.7 °C 29.9in /  1012.8hPa Calm   5mph /  8.0km/h 96% 0.02in /  0.5mm 0 W/m2
08:35 45.3 °F /  7.4 °C 44.2 °F /  6.8 °C 29.9in /  1012.8hPa West 2mph /  3.2km/h 5mph /  8.0km/h 96% 0.01in /  0.3mm 0 W/m2
08:40 45.3 °F /  7.4 °C 44.2 °F /  6.8 °C 29.9in /  1012.8hPa WNW 2mph /  3.2km/h 6mph /  9.7km/h 96% 0in /  0.0mm 0 W/m2
08:45 45.7 °F /  7.6 °C 44.6 °F /  7.0 °C 29.9in /  1012.8hPa West 1mph /  1.6km/h 6mph /  9.7km/h 96% 0in /  0.0mm 5 W/m2
08:50 45.9 °F /  7.7 °C 44.8 °F /  7.1 °C 29.9in /  1013.1hPa WNW 5mph /  8.0km/h 11mph /  17.7km/h 96% 0in /  0.0mm 7 W/m2
09:00 46 °F /  7.8 °C 45 °F /  7.2 °C 29.9in /  1013.1hPa WNW 4mph /  6.4km/h 12mph /  19.3km/h 96% 0in /  0.0mm 9 W/m2
09:05 46 °F /  7.8 °C 45 °F /  7.2 °C 29.9in /  1013.1hPa WNW 8mph /  12.9km/h 10mph /  16.1km/h 96% 0in /  0.0mm 12 W/m2
09:10 46 °F /  7.8 °C 45 °F /  7.2 °C 29.9in /  1013.1hPa WNW 3mph /  4.8km/h 13mph /  20.9km/h 96% 0in /  0.0mm 19 W/m2
09:15 46 °F /  7.8 °C 45 °F /  7.2 °C 29.9in /  1013.4hPa NW 7mph /  11.3km/h 13mph /  20.9km/h 96% 0in /  0.0mm 7 W/m2
09:20 46 °F /  7.8 °C 45 °F /  7.2 °C 29.9in /  1013.4hPa WNW 6mph /  9.7km/h 13mph /  20.9km/h 96% 0in /  0.0mm 12 W/m2
09:25 46 °F /  7.8 °C 45 °F /  7.2 °C 29.9in /  1013.4hPa NW 4mph /  6.4km/h 17mph /  27.4km/h 96% 0.01in /  0.3mm 7 W/m2
09:30 45.7 °F /  7.6 °C 44.6 °F /  7.0 °C 29.9in /  1013.4hPa NNW 8mph /  12.9km/h 24mph /  38.6km/h 96% 0.02in /  0.5mm 19 W/m2
09:35 45.3 °F /  7.4 °C 44.2 °F /  6.8 °C 29.9in /  1013.8hPa WNW 10mph /  16.1km/h 24mph /  38.6km/h 96% 0.02in /  0.5mm 33 W/m2
09:40 45.1 °F /  7.3 °C 44.1 °F /  6.7 °C 29.9in /  1013.8hPa NNW 13mph /  20.9km/h 18mph /  29.0km/h 96% 0.02in /  0.5mm 30 W/m2
09:50 44.4 °F /  6.9 °C 43.5 °F /  6.4 °C 29.9in /  1014.1hPa NW 8mph /  12.9km/h 19mph /  30.6km/h 96% 0.03in /  0.8mm 42 W/m2
10:00 44.1 °F /  6.7 °C 43 °F /  6.1 °C 30in /  1014.4hPa NW 2mph /  3.2km/h 17mph /  27.4km/h 96% 0.03in /  0.8mm 46 W/m2
10:05 44.1 °F /  6.7 °C 43 °F /  6.1 °C 30in /  1014.4hPa NNW 10mph /  16.1km/h 17mph /  27.4km/h 96% 0.03in /  0.8mm 49 W/m2
10:10 44.1 °F /  6.7 °C 43 °F /  6.1 °C 30in /  1014.4hPa WNW 1mph /  1.6km/h 14mph /  22.5km/h 96% 0.03in /  0.8mm 40 W/m2
10:15 43.7 °F /  6.5 °C 42.6 °F /  5.9 °C 30in /  1014.4hPa NNW 10mph /  16.1km/h 19mph /  30.6km/h 96% 0.03in /  0.8mm 74 W/m2
10:20 43.5 °F /  6.4 °C 42.4 °F /  5.8 °C 30in /  1014.8hPa NW 6mph /  9.7km/h 20mph /  32.2km/h 96% 0.03in /  0.8mm 65 W/m2
10:30 43 °F /  6.1 °C 41.9 °F /  5.5 °C 30in /  1015.1hPa NNW 7mph /  11.3km/h 15mph /  24.1km/h 96% 0.02in /  0.5mm 83 W/m2
10:35 42.8 °F /  6.0 °C 41.7 °F /  5.4 °C 30in /  1015.1hPa NNW 5mph /  8.0km/h 13mph /  20.9km/h 96% 0.02in /  0.5mm 81 W/m2
10:40 42.6 °F /  5.9 °C 41.7 °F /  5.4 °C 30in /  1015.1hPa NNW 5mph /  8.0km/h 13mph /  20.9km/h 96% 0.01in /  0.3mm 88 W/m2
10:45 42.8 °F /  6.0 °C 41.7 °F /  5.4 °C 30in /  1015.1hPa NNW 6mph /  9.7km/h 12mph /  19.3km/h 96% 0in /  0.0mm 93 W/m2
10:50 42.6 °F /  5.9 °C 41.7 °F /  5.4 °C 30in /  1015.5hPa NNW 4mph /  6.4km/h 12mph /  19.3km/h 96% 0in /  0.0mm 93 W/m2
10:55 43 °F /  6.1 °C 41.9 °F /  5.5 °C 30in /  1015.5hPa NW 5mph /  8.0km/h 12mph /  19.3km/h 96% 0in /  0.0mm 134 W/m2
11:00 43.3 °F /  6.3 °C 41.9 °F /  5.5 °C 30in /  1015.5hPa North 5mph /  8.0km/h 13mph /  20.9km/h 95% 0in /  0.0mm 132 W/m2
11:05 43.2 °F /  6.2 °C 41.7 °F /  5.4 °C 30in /  1015.5hPa NW 4mph /  6.4km/h 13mph /  20.9km/h 95% 0in /  0.0mm 128 W/m2
11:15 43.2 °F /  6.2 °C 41.5 °F /  5.3 °C 30in /  1015.5hPa NNW 4mph /  6.4km/h 14mph /  22.5km/h 94% 0in /  0.0mm 149 W/m2
11:20 43.3 °F /  6.3 °C 41.7 °F /  5.4 °C 30in /  1015.8hPa WNW 10mph /  16.1km/h 13mph /  20.9km/h 94% 0in /  0.0mm 165 W/m2
11:25 43.5 °F /  6.4 °C 41.7 °F /  5.4 °C 30in /  1015.8hPa North 4mph /  6.4km/h 13mph /  20.9km/h 93% 0in /  0.0mm 158 W/m2
11:30 43.7 °F /  6.5 °C 41.5 °F /  5.3 °C 30in /  1015.8hPa NNW 6mph /  9.7km/h 12mph /  19.3km/h 92% 0in /  0.0mm 137 W/m2
11:35 43.3 °F /  6.3 °C 41 °F /  5.0 °C 30in /  1015.8hPa NNW 1mph /  1.6km/h 10mph /  16.1km/h 91% 0in /  0.0mm 51 W/m2
11:40 44.1 °F /  6.7 °C 42.1 °F /  5.6 °C 30in /  1015.8hPa NW 4mph /  6.4km/h 15mph /  24.1km/h 93% 0in /  0.0mm 399 W/m2
11:45 45.3 °F /  7.4 °C 42.8 °F /  6.0 °C 30in /  1015.8hPa NW 2mph /  3.2km/h 15mph /  24.1km/h 91% 0in /  0.0mm 422 W/m2
11:50 46 °F /  7.8 °C 43 °F /  6.1 °C 30in /  1016.1hPa NW 9mph /  14.5km/h 12mph /  19.3km/h 89% 0in /  0.0mm 192 W/m2
12:00 45.3 °F /  7.4 °C 41.4 °F /  5.2 °C 30in /  1016.1hPa NNW 13mph /  20.9km/h 18mph /  29.0km/h 86% 0in /  0.0mm 185 W/m2
12:05 46 °F /  7.8 °C 41.7 °F /  5.4 °C 30in /  1016.1hPa NNW 4mph /  6.4km/h 19mph /  30.6km/h 85% 0in /  0.0mm 454 W/m2
12:10 46.8 °F /  8.2 °C 41.9 °F /  5.5 °C 30in /  1016.1hPa WNW 6mph /  9.7km/h 19mph /  30.6km/h 83% 0in /  0.0mm 450 W/m2
12:15 47.1 °F /  8.4 °C 41.9 °F /  5.5 °C 30in /  1016.1hPa NNE 11mph /  17.7km/h 18mph /  29.0km/h 82% 0in /  0.0mm 490 W/m2
12:20 47.1 °F /  8.4 °C 41.5 °F /  5.3 °C 30in /  1016.5hPa NNW 7mph /  11.3km/h 20mph /  32.2km/h 81% 0in /  0.0mm 457 W/m2
12:25 47.8 °F /  8.8 °C 42.6 °F /  5.9 °C 30in /  1016.5hPa NNW 6mph /  9.7km/h 20mph /  32.2km/h 82% 0in /  0.0mm 464 W/m2
12:30 47.8 °F /  8.8 °C 41.4 °F /  5.2 °C 30in /  1016.1hPa NW 4mph /  6.4km/h 17mph /  27.4km/h 78% 0in /  0.0mm 461 W/m2
12:35 47.5 °F /  8.6 °C 38.8 °F /  3.8 °C 30in /  1016.5hPa NNE 4mph /  6.4km/h 21mph /  33.8km/h 72% 0in /  0.0mm 461 W/m2
12:45 48.4 °F /  9.1 °C 40.5 °F /  4.7 °C 30in /  1016.1hPa NNW 8mph /  12.9km/h 22mph /  35.4km/h 74% 0in /  0.0mm 475 W/m2
12:50 48.4 °F /  9.1 °C 39.4 °F /  4.1 °C 30in /  1016.5hPa North 11mph /  17.7km/h 18mph /  29.0km/h 71% 0in /  0.0mm 476 W/m2
12:55 48.6 °F /  9.2 °C 38.1 °F /  3.4 °C 30in /  1016.5hPa NW 4mph /  6.4km/h 18mph /  29.0km/h 67% 0in /  0.0mm 480 W/m2
13:00 48.6 °F /  9.2 °C 39.2 °F /  4.0 °C 30in /  1016.5hPa NNW 8mph /  12.9km/h 18mph /  29.0km/h 70% 0in /  0.0mm 478 W/m2
13:05 48.7 °F /  9.3 °C 37.9 °F /  3.3 °C 30in /  1016.5hPa NNW 8mph /  12.9km/h 18mph /  29.0km/h 66% 0in /  0.0mm 478 W/m2
13:10 49.1 °F /  9.5 °C 40.1 °F /  4.5 °C 30in /  1016.5hPa NNW 10mph /  16.1km/h 16mph /  25.7km/h 71% 0in /  0.0mm 482 W/m2
13:15 48.7 °F /  9.3 °C 37.2 °F /  2.9 °C 30in /  1016.5hPa NW 7mph /  11.3km/h 19mph /  30.6km/h 64% 0in /  0.0mm 483 W/m2
13:20 49.3 °F /  9.6 °C 38.7 °F /  3.7 °C 30in /  1016.5hPa NW 9mph /  14.5km/h 22mph /  35.4km/h 67% 0in /  0.0mm 478 W/m2
13:30 49.3 °F /  9.6 °C 38.7 °F /  3.7 °C 30in /  1016.8hPa WNW 7mph /  11.3km/h 21mph /  33.8km/h 67% 0in /  0.0mm 483 W/m2
13:35 49.5 °F /  9.7 °C 38.3 °F /  3.5 °C 30in /  1016.8hPa North 8mph /  12.9km/h 21mph /  33.8km/h 65% 0in /  0.0mm 490 W/m2
13:40 49.3 °F /  9.6 °C 36.5 °F /  2.5 °C 30in /  1016.8hPa North 10mph /  16.1km/h 19mph /  30.6km/h 61% 0in /  0.0mm 482 W/m2
13:45 49.3 °F /  9.6 °C 37.2 °F /  2.9 °C 30in /  1016.8hPa NNE 9mph /  14.5km/h 19mph /  30.6km/h 63% 0in /  0.0mm 489 W/m2
13:50 48.7 °F /  9.3 °C 36 °F /  2.2 °C 30in /  1016.8hPa NNW 6mph /  9.7km/h 18mph /  29.0km/h 61% 0in /  0.0mm 239 W/m2
13:55 49.6 °F /  9.8 °C 38.7 °F /  3.7 °C 30in /  1016.8hPa NNW 15mph /  24.1km/h 18mph /  29.0km/h 66% 0in /  0.0mm 524 W/m2
14:00 50.5 °F /  10.3 °C 38.8 °F /  3.8 °C 30in /  1016.8hPa North 10mph /  16.1km/h 17mph /  27.4km/h 64% 0in /  0.0mm 522 W/m2
14:05 50.7 °F /  10.4 °C 37.4 °F /  3.0 °C 30in /  1016.8hPa NW 9mph /  14.5km/h 17mph /  27.4km/h 60% 0in /  0.0mm 517 W/m2
14:15 51.1 °F /  10.6 °C 38.5 °F /  3.6 °C 30in /  1016.8hPa NW 10mph /  16.1km/h 17mph /  27.4km/h 62% 0in /  0.0mm 592 W/m2
14:20 51.3 °F /  10.7 °C 39.9 °F /  4.4 °C 30in /  1016.8hPa NNW 12mph /  19.3km/h 17mph /  27.4km/h 65% 0in /  0.0mm 561 W/m2
14:25 51.1 °F /  10.6 °C 37.6 °F /  3.1 °C 30in /  1016.8hPa NW 10mph /  16.1km/h 18mph /  29.0km/h 60% 0in /  0.0mm 483 W/m2
14:30 49.5 °F /  9.7 °C 34.9 °F /  1.6 °C 30in /  1016.8hPa NW 14mph /  22.5km/h 18mph /  29.0km/h 57% 0in /  0.0mm 461 W/m2
14:35 49.3 °F /  9.6 °C 33.8 °F /  1.0 °C 30in /  1016.8hPa NNW 11mph /  17.7km/h 19mph /  30.6km/h 55% 0in /  0.0mm 483 W/m2
14:40 50.2 °F /  10.1 °C 36.7 °F /  2.6 °C 30in /  1017.2hPa NNW 6mph /  9.7km/h 20mph /  32.2km/h 60% 0in /  0.0mm 552 W/m2
14:45 50.7 °F /  10.4 °C 37.8 °F /  3.2 °C 30in /  1017.2hPa North 5mph /  8.0km/h 20mph /  32.2km/h 61% 0in /  0.0mm 642 W/m2
14:50 50.4 °F /  10.2 °C 37.9 °F /  3.3 °C 30.1in /  1017.5hPa NNE 8mph /  12.9km/h 21mph /  33.8km/h 62% 0in /  0.0mm 142 W/m2
15:00 47.5 °F /  8.6 °C 37.4 °F /  3.0 °C 30.1in /  1017.5hPa NNW 8mph /  12.9km/h 19mph /  30.6km/h 68% 0.01in /  0.3mm 457 W/m2
15:05 48 °F /  8.9 °C 34.9 °F /  1.6 °C 30.1in /  1017.5hPa NW 2mph /  3.2km/h 17mph /  27.4km/h 60% 0.01in /  0.3mm 475 W/m2
15:10 48.4 °F /  9.1 °C 35.4 °F /  1.9 °C 30.1in /  1017.5hPa NW 6mph /  9.7km/h 20mph /  32.2km/h 61% 0.01in /  0.3mm 104 W/m2
15:15 46.2 °F /  7.9 °C 36.3 °F /  2.4 °C 30.1in /  1017.5hPa NNW 9mph /  14.5km/h 20mph /  32.2km/h 68% 0.01in /  0.3mm 81 W/m2
15:20 45.3 °F /  7.4 °C 35.8 °F /  2.1 °C 30.1in /  1017.5hPa NNW 9mph /  14.5km/h 17mph /  27.4km/h 69% 0.01in /  0.3mm 141 W/m2
15:25 46.9 °F /  8.3 °C 36.7 °F /  2.6 °C 30.1in /  1017.5hPa NNW 5mph /  8.0km/h 17mph /  27.4km/h 67% 0.01in /  0.3mm 378 W/m2
15:30 47.8 °F /  8.8 °C 35.4 °F /  1.9 °C 30.1in /  1017.8hPa NW 6mph /  9.7km/h 15mph /  24.1km/h 62% 0.01in /  0.3mm 355 W/m2
15:35 48 °F /  8.9 °C 36.3 °F /  2.4 °C 30.1in /  1017.5hPa NW 3mph /  4.8km/h 15mph /  24.1km/h 64% 0.01in /  0.3mm 343 W/m2
15:45 47.8 °F /  8.8 °C 35.1 °F /  1.7 °C 30.1in /  1017.5hPa North 7mph /  11.3km/h 17mph /  27.4km/h 61% 0.01in /  0.3mm 325 W/m2
15:50 48 °F /  8.9 °C 36.1 °F /  2.3 °C 30.1in /  1017.8hPa NW 5mph /  8.0km/h 17mph /  27.4km/h 63% 0.01in /  0.3mm 330 W/m2
15:55 48 °F /  8.9 °C 36.9 °F /  2.7 °C 30.1in /  1017.8hPa NW 9mph /  14.5km/h 16mph /  25.7km/h 65% 0in /  0.0mm 297 W/m2
16:00 47.8 °F /  8.8 °C 36.7 °F /  2.6 °C 30.1in /  1017.5hPa NW 5mph /  8.0km/h 19mph /  30.6km/h 65% 0in /  0.0mm 345 W/m2
16:05 47.1 °F /  8.4 °C 35.6 °F /  2.0 °C 30.1in /  1017.8hPa NW 11mph /  17.7km/h 19mph /  30.6km/h 64% 0in /  0.0mm 295 W/m2
16:10 47.8 °F /  8.8 °C 37.4 °F /  3.0 °C 30.1in /  1017.8hPa NNW 8mph /  12.9km/h 17mph /  27.4km/h 67% 0in /  0.0mm 276 W/m2
16:15 47.8 °F /  8.8 °C 35.8 °F /  2.1 °C 30.1in /  1017.8hPa NW 9mph /  14.5km/h 17mph /  27.4km/h 63% 0in /  0.0mm 258 W/m2
16:20 47.1 °F /  8.4 °C 32.2 °F /  0.1 °C 30.1in /  1017.8hPa North 5mph /  8.0km/h 22mph /  35.4km/h 56% 0in /  0.0mm 220 W/m2
16:30 46.6 °F /  8.1 °C 33.4 °F /  0.8 °C 30.1in /  1017.8hPa North 14mph /  22.5km/h 18mph /  29.0km/h 60% 0in /  0.0mm 127 W/m2
16:35 46.2 °F /  7.9 °C 33.4 °F /  0.8 °C 30.1in /  1017.8hPa NNW 6mph /  9.7km/h 23mph /  37.0km/h 61% 0in /  0.0mm 47 W/m2
16:40 45.9 °F /  7.7 °C 34 °F /  1.1 °C 30.1in /  1018.2hPa NW 9mph /  14.5km/h 23mph /  37.0km/h 63% 0in /  0.0mm 79 W/m2
16:45 45.9 °F /  7.7 °C 34.3 °F /  1.3 °C 30.1in /  1018.2hPa North 10mph /  16.1km/h 19mph /  30.6km/h 64% 0in /  0.0mm 105 W/m2
16:50 45.7 °F /  7.6 °C 33.3 °F /  0.7 °C 30.1in /  1018.2hPa NW 9mph /  14.5km/h 18mph /  29.0km/h 62% 0in /  0.0mm 60 W/m2
16:55 45.1 °F /  7.3 °C 33.8 °F /  1.0 °C 30.1in /  1018.2hPa NNW 14mph /  22.5km/h 18mph /  29.0km/h 64% 0in /  0.0mm 91 W/m2
17:00 45 °F /  7.2 °C 33.1 °F /  0.6 °C 30.1in /  1018.2hPa North 7mph /  11.3km/h 17mph /  27.4km/h 63% 0in /  0.0mm 37 W/m2
17:05 44.4 °F /  6.9 °C 33.4 °F /  0.8 °C 30.1in /  1018.5hPa NW 7mph /  11.3km/h 18mph /  29.0km/h 65% 0in /  0.0mm 46 W/m2
17:15 43.9 °F /  6.6 °C 34 °F /  1.1 °C 30.1in /  1018.5hPa NW 6mph /  9.7km/h 17mph /  27.4km/h 68% 0in /  0.0mm 32 W/m2
17:20 43.5 °F /  6.4 °C 33.6 °F /  0.9 °C 30.1in /  1018.5hPa North 4mph /  6.4km/h 15mph /  24.1km/h 68% 0in /  0.0mm 30 W/m2
17:25 43.3 °F /  6.3 °C 33.1 °F /  0.6 °C 30.1in /  1018.5hPa NNW 7mph /  11.3km/h 16mph /  25.7km/h 67% 0in /  0.0mm 28 W/m2
17:30 43.2 °F /  6.2 °C 32.9 °F /  0.5 °C 30.1in /  1018.8hPa NNE 7mph /  11.3km/h 16mph /  25.7km/h 67% 0in /  0.0mm 28 W/m2
17:35 43 °F /  6.1 °C 33.1 °F /  0.6 °C 30.1in /  1018.8hPa NNW 6mph /  9.7km/h 15mph /  24.1km/h 68% 0in /  0.0mm 26 W/m2
17:40 42.8 °F /  6.0 °C 33.3 °F /  0.7 °C 30.1in /  1018.8hPa NW 4mph /  6.4km/h 13mph /  20.9km/h 69% 0in /  0.0mm 25 W/m2
17:45 42.4 °F /  5.8 °C 33.4 °F /  0.8 °C 30.1in /  1018.8hPa NW 6mph /  9.7km/h 14mph /  22.5km/h 70% 0in /  0.0mm 23 W/m2
17:50 42.3 °F /  5.7 °C 33.3 °F /  0.7 °C 30.1in /  1018.8hPa NNW 6mph /  9.7km/h 14mph /  22.5km/h 70% 0in /  0.0mm 19 W/m2
18:00 41.5 °F /  5.3 °C 33.4 °F /  0.8 °C 30.1in /  1019.2hPa NNW 4mph /  6.4km/h 10mph /  16.1km/h 73% 0in /  0.0mm 14 W/m2
18:05 41.2 °F /  5.1 °C 33.3 °F /  0.7 °C 30.1in /  1019.2hPa NNW 12mph /  19.3km/h 12mph /  19.3km/h 73% 0in /  0.0mm 12 W/m2
18:10 41 °F /  5.0 °C 33.3 °F /  0.7 °C 30.1in /  1019.5hPa NW 1mph /  1.6km/h 12mph /  19.3km/h 74% 0in /  0.0mm 11 W/m2
18:15 41 °F /  5.0 °C 33.3 °F /  0.7 °C 30.1in /  1019.5hPa North 5mph /  8.0km/h 16mph /  25.7km/h 74% 0in /  0.0mm 7 W/m2
18:20 41.2 °F /  5.1 °C 33.1 °F /  0.6 °C 30.1in /  1019.5hPa NNW 6mph /  9.7km/h 16mph /  25.7km/h 73% 0in /  0.0mm 5 W/m2
18:25 41.2 °F /  5.1 °C 32.4 °F /  0.2 °C 30.1in /  1019.9hPa NNE 4mph /  6.4km/h 14mph /  22.5km/h 71% 0in /  0.0mm 0 W/m2
18:30 41.2 °F /  5.1 °C 31.6 °F /  -0.2 °C 30.1in /  1019.9hPa NNW 7mph /  11.3km/h 15mph /  24.1km/h 69% 0in /  0.0mm 0 W/m2
18:35 41.2 °F /  5.1 °C 31.8 °F /  -0.1 °C 30.1in /  1020.2hPa NW 5mph /  8.0km/h 15mph /  24.1km/h 69% 0in /  0.0mm 0 W/m2
18:45 40.6 °F /  4.8 °C 31.6 °F /  -0.2 °C 30.1in /  1020.2hPa NNW 4mph /  6.4km/h 12mph /  19.3km/h 70% 0in /  0.0mm 0 W/m2
18:50 40.1 °F /  4.5 °C 31.8 °F /  -0.1 °C 30.1in /  1020.2hPa NNW 4mph /  6.4km/h 12mph /  19.3km/h 72% 0in /  0.0mm 0 W/m2
18:55 40.1 °F /  4.5 °C 31.8 °F /  -0.1 °C 30.1in /  1020.5hPa NNW 3mph /  4.8km/h 10mph /  16.1km/h 72% 0in /  0.0mm 0 W/m2
19:00 39.9 °F /  4.4 °C 31.6 °F /  -0.2 °C 30.1in /  1020.5hPa NW 6mph /  9.7km/h 10mph /  16.1km/h 72% 0in /  0.0mm 0 W/m2
19:05 39.9 °F /  4.4 °C 32 °F /  0.0 °C 30.1in /  1020.5hPa NW 5mph /  8.0km/h 9mph /  14.5km/h 73% 0in /  0.0mm 0 W/m2
19:10 39.7 °F /  4.3 °C 32 °F /  0.0 °C 30.1in /  1020.5hPa NNW 1mph /  1.6km/h 10mph /  16.1km/h 74% 0in /  0.0mm 0 W/m2
19:15 39.6 °F /  4.2 °C 32 °F /  0.0 °C 30.2in /  1020.9hPa NNW 5mph /  8.0km/h 10mph /  16.1km/h 74% 0in /  0.0mm 0 W/m2
19:20 39.4 °F /  4.1 °C 32.2 °F /  0.1 °C 30.2in /  1020.9hPa NNW 5mph /  8.0km/h 8mph /  12.9km/h 75% 0in /  0.0mm 0 W/m2
19:30 38.8 °F /  3.8 °C 31.8 °F /  -0.1 °C 30.2in /  1020.9hPa NW 3mph /  4.8km/h 7mph /  11.3km/h 76% 0in /  0.0mm 0 W/m2
19:35 38.5 °F /  3.6 °C 32 °F /  0.0 °C 30.2in /  1021.2hPa NNW 3mph /  4.8km/h 8mph /  12.9km/h 77% 0in /  0.0mm 0 W/m2
19:40 38.7 °F /  3.7 °C 32 °F /  0.0 °C 30.2in /  1021.2hPa NW 3mph /  4.8km/h 8mph /  12.9km/h 77% 0in /  0.0mm 0 W/m2
19:45 38.7 °F /  3.7 °C 31.8 °F /  -0.1 °C 30.2in /  1021.2hPa NW 2mph /  3.2km/h 7mph /  11.3km/h 76% 0in /  0.0mm 0 W/m2
19:50 38.5 °F /  3.6 °C 31.6 °F /  -0.2 °C 30.2in /  1021.2hPa WNW 2mph /  3.2km/h 7mph /  11.3km/h 76% 0in /  0.0mm 0 W/m2
19:55 38.1 °F /  3.4 °C 31.6 °F /  -0.2 °C 30.2in /  1021.2hPa WNW 1mph /  1.6km/h 6mph /  9.7km/h 77% 0in /  0.0mm 0 W/m2
20:00 37.9 °F /  3.3 °C 31.5 °F /  -0.3 °C 30.2in /  1021.2hPa NNW 6mph /  9.7km/h 6mph /  9.7km/h 77% 0in /  0.0mm 0 W/m2
20:05 37.8 °F /  3.2 °C 31.5 °F /  -0.3 °C 30.2in /  1021.2hPa NW 3mph /  4.8km/h 6mph /  9.7km/h 78% 0in /  0.0mm 0 W/m2
20:15 37.2 °F /  2.9 °C 31.3 °F /  -0.4 °C 30.2in /  1021.6hPa NW 5mph /  8.0km/h 8mph /  12.9km/h 79% 0in /  0.0mm 0 W/m2
20:20 37 °F /  2.8 °C 31.5 °F /  -0.3 °C 30.2in /  1021.6hPa NNW 2mph /  3.2km/h 8mph /  12.9km/h 80% 0in /  0.0mm 0 W/m2
20:25 37.2 °F /  2.9 °C 31.6 °F /  -0.2 °C 30.2in /  1021.6hPa NNW 1mph /  1.6km/h 8mph /  12.9km/h 80% 0in /  0.0mm 0 W/m2
20:30 37.4 °F /  3.0 °C 31.5 °F /  -0.3 °C 30.2in /  1021.6hPa WNW 2mph /  3.2km/h 8mph /  12.9km/h 79% 0in /  0.0mm 0 W/m2
20:35 37.6 °F /  3.1 °C 31.6 °F /  -0.2 °C 30.2in /  1021.6hPa NNW 5mph /  8.0km/h 9mph /  14.5km/h 79% 0in /  0.0mm 0 W/m2
20:40 37.9 °F /  3.3 °C 31.6 °F /  -0.2 °C 30.2in /  1021.9hPa WNW 4mph /  6.4km/h 9mph /  14.5km/h 78% 0in /  0.0mm 0 W/m2
20:45 37.9 °F /  3.3 °C 31.6 °F /  -0.2 °C 30.2in /  1021.9hPa NW 5mph /  8.0km/h 8mph /  12.9km/h 78% 0in /  0.0mm 0 W/m2
20:50 37.9 °F /  3.3 °C 31.6 °F /  -0.2 °C 30.2in /  1021.9hPa WNW 2mph /  3.2km/h 8mph /  12.9km/h 78% 0in /  0.0mm 0 W/m2
21:00 37.6 °F /  3.1 °C 31.3 °F /  -0.4 °C 30.2in /  1021.9hPa WNW 2mph /  3.2km/h 7mph /  11.3km/h 78% 0in /  0.0mm 0 W/m2
21:05 37.6 °F /  3.1 °C 31.3 °F /  -0.4 °C 30.2in /  1021.9hPa Calm   7mph /  11.3km/h 78% 0in /  0.0mm 0 W/m2
21:10 37 °F /  2.8 °C 31.1 °F /  -0.5 °C 30.2in /  1022.2hPa Calm   7mph /  11.3km/h 79% 0in /  0.0mm 0 W/m2
21:15 37 °F /  2.8 °C 31.1 °F /  -0.5 °C 30.2in /  1022.2hPa WNW 3mph /  4.8km/h 5mph /  8.0km/h 79% 0in /  0.0mm 0 W/m2
21:20 37 °F /  2.8 °C 31.1 °F /  -0.5 °C 30.2in /  1022.2hPa WNW 4mph /  6.4km/h 6mph /  9.7km/h 79% 0in /  0.0mm 0 W/m2
21:25 36.9 °F /  2.7 °C 30.9 °F /  -0.6 °C 30.2in /  1022.2hPa NW 2mph /  3.2km/h 7mph /  11.3km/h 79% 0in /  0.0mm 0 W/m2
21:30 37 °F /  2.8 °C 31.5 °F /  -0.3 °C 30.2in /  1022.6hPa NW 1mph /  1.6km/h 7mph /  11.3km/h 80% 0in /  0.0mm 0 W/m2
21:35 37.2 °F /  2.9 °C 31.6 °F /  -0.2 °C 30.2in /  1022.2hPa NW 3mph /  4.8km/h 6mph /  9.7km/h 80% 0in /  0.0mm 0 W/m2
21:45 37.2 °F /  2.9 °C 32 °F /  0.0 °C 30.2in /  1022.6hPa NW 2mph /  3.2km/h 7mph /  11.3km/h 81% 0in /  0.0mm 0 W/m2
21:50 37.6 °F /  3.1 °C 32.2 °F /  0.1 °C 30.2in /  1022.6hPa WNW 1mph /  1.6km/h 7mph /  11.3km/h 81% 0in /  0.0mm 0 W/m2
21:55 37.8 °F /  3.2 °C 32.4 °F /  0.2 °C 30.2in /  1022.6hPa NW 1mph /  1.6km/h 7mph /  11.3km/h 81% 0in /  0.0mm 0 W/m2
22:00 37.6 °F /  3.1 °C 32.2 °F /  0.1 °C 30.2in /  1022.6hPa NNW 1mph /  1.6km/h 7mph /  11.3km/h 81% 0in /  0.0mm 0 W/m2
22:05 37.6 °F /  3.1 °C 32.4 °F /  0.2 °C 30.2in /  1022.6hPa NW 2mph /  3.2km/h 8mph /  12.9km/h 81% 0in /  0.0mm 0 W/m2
22:10 37.6 °F /  3.1 °C 32.2 °F /  0.1 °C 30.2in /  1022.6hPa NW 2mph /  3.2km/h 8mph /  12.9km/h 81% 0in /  0.0mm 0 W/m2
22:15 37.6 °F /  3.1 °C 32.5 °F /  0.3 °C 30.2in /  1022.9hPa WNW 4mph /  6.4km/h 8mph /  12.9km/h 82% 0in /  0.0mm 0 W/m2
22:20 37.6 °F /  3.1 °C 32.5 °F /  0.3 °C 30.2in /  1022.9hPa NW 4mph /  6.4km/h 8mph /  12.9km/h 82% 0in /  0.0mm 0 W/m2
22:30 37.2 °F /  2.9 °C 32.5 °F /  0.3 °C 30.2in /  1022.9hPa WNW 1mph /  1.6km/h 7mph /  11.3km/h 83% 0in /  0.0mm 0 W/m2
22:35 37.4 °F /  3.0 °C 32.7 °F /  0.4 °C 30.2in /  1022.9hPa West 2mph /  3.2km/h 9mph /  14.5km/h 83% 0in /  0.0mm 0 W/m2
22:40 37.2 °F /  2.9 °C 32.9 °F /  0.5 °C 30.2in /  1023.2hPa NW 2mph /  3.2km/h 9mph /  14.5km/h 84% 0in /  0.0mm 0 W/m2
22:45 37.4 °F /  3.0 °C 33.1 °F /  0.6 °C 30.2in /  1023.2hPa NW 5mph /  8.0km/h 7mph /  11.3km/h 84% 0in /  0.0mm 0 W/m2
22:50 37.6 °F /  3.1 °C 33.1 °F /  0.6 °C 30.2in /  1023.2hPa WNW 4mph /  6.4km/h 8mph /  12.9km/h 84% 0in /  0.0mm 0 W/m2
22:55 37.6 °F /  3.1 °C 33.3 °F /  0.7 °C 30.2in /  1023.2hPa NW 2mph /  3.2km/h 9mph /  14.5km/h 84% 0in /  0.0mm 0 W/m2
23:00 37.9 °F /  3.3 °C 33.8 °F /  1.0 °C 30.2in /  1023.2hPa NW 1mph /  1.6km/h 9mph /  14.5km/h 85% 0in /  0.0mm 0 W/m2
23:05 37.9 °F /  3.3 °C 33.6 °F /  0.9 °C 30.2in /  1022.9hPa NW 5mph /  8.0km/h 9mph /  14.5km/h 84% 0in /  0.0mm 0 W/m2
23:15 37.9 °F /  3.3 °C 33.6 °F /  0.9 °C 30.2in /  1022.9hPa NNW 2mph /  3.2km/h 8mph /  12.9km/h 84% 0in /  0.0mm 0 W/m2
23:20 37.8 °F /  3.2 °C 33.6 °F /  0.9 °C 30.2in /  1022.9hPa NW 2mph /  3.2km/h 6mph /  9.7km/h 85% 0in /  0.0mm 0 W/m2
23:25 37.8 °F /  3.2 °C 33.6 °F /  0.9 °C 30.2in /  1022.9hPa NW 5mph /  8.0km/h 7mph /  11.3km/h 85% 0in /  0.0mm 0 W/m2
23:30 37.8 °F /  3.2 °C 33.6 °F /  0.9 °C 30.2in /  1022.9hPa WNW 3mph /  4.8km/h 7mph /  11.3km/h 85% 0in /  0.0mm 0 W/m2
23:35 37.8 °F /  3.2 °C 33.8 °F /  1.0 °C 30.2in /  1022.9hPa NW 4mph /  6.4km/h 8mph /  12.9km/h 86% 0in /  0.0mm 0 W/m2
23:40 37.6 °F /  3.1 °C 33.8 °F /  1.0 °C 30.2in /  1022.9hPa NNW 6mph /  9.7km/h 8mph /  12.9km/h 86% 0in /  0.0mm 0 W/m2
23:45 37.6 °F /  3.1 °C 33.6 °F /  0.9 °C 30.2in /  1023.2hPa WNW 2mph /  3.2km/h 8mph /  12.9km/h 86% 0in /  0.0mm 0 W/m2
23:50 37.4 °F /  3.0 °C 33.8 °F /  1.0 °C 30.2in /  1023.2hPa NW 4mph /  6.4km/h 9mph /  14.5km/h 87% 0in /  0.0mm 0 W/m2